sensor_id;sensor_type;location;lat;lon;timestamp;pressure;altitude;pressure_sealevel;temperature;humidity
57827;BME280;43656;57.746;11.780;2023-06-22T00:01:50;101435.44;;;19.89;90.77
57827;BME280;43656;57.746;11.780;2023-06-22T00:04:15;101435.78;;;19.92;90.86
57827;BME280;43656;57.746;11.780;2023-06-22T00:06:42;101432.06;;;19.82;91.60
57827;BME280;43656;57.746;11.780;2023-06-22T00:09:07;101433.28;;;19.74;91.93
57827;BME280;43656;57.746;11.780;2023-06-22T00:11:33;101436.44;;;19.83;92.07
57827;BME280;43656;57.746;11.780;2023-06-22T00:14:03;101427.84;;;19.62;93.19
57827;BME280;43656;57.746;11.780;2023-06-22T00:16:29;101434.59;;;19.60;92.98
57827;BME280;43656;57.746;11.780;2023-06-22T00:18:54;101429.13;;;19.71;92.35
57827;BME280;43656;57.746;11.780;2023-06-22T00:21:19;101433.63;;;19.78;91.92
57827;BME280;43656;57.746;11.780;2023-06-22T00:23:46;101432.09;;;19.70;92.26
57827;BME280;43656;57.746;11.780;2023-06-22T00:26:12;101411.03;;;19.54;92.37
57827;BME280;43656;57.746;11.780;2023-06-22T00:28:38;101419.06;;;19.60;92.64
57827;BME280;43656;57.746;11.780;2023-06-22T00:31:03;101420.94;;;19.60;92.30
57827;BME280;43656;57.746;11.780;2023-06-22T00:33:29;101420.34;;;19.41;93.13
57827;BME280;43656;57.746;11.780;2023-06-22T00:35:54;101425.19;;;19.39;92.68
57827;BME280;43656;57.746;11.780;2023-06-22T00:38:20;101427.56;;;19.47;91.96
57827;BME280;43656;57.746;11.780;2023-06-22T00:40:46;101424.47;;;19.43;92.17
57827;BME280;43656;57.746;11.780;2023-06-22T00:43:11;101421.38;;;19.40;92.35
57827;BME280;43656;57.746;11.780;2023-06-22T00:45:36;101420.81;;;19.38;92.59
57827;BME280;43656;57.746;11.780;2023-06-22T00:48:02;101425.13;;;19.34;92.97
57827;BME280;43656;57.746;11.780;2023-06-22T00:50:30;101413.59;;;19.32;92.85
57827;BME280;43656;57.746;11.780;2023-06-22T00:52:59;101426.56;;;19.24;93.71
57827;BME280;43656;57.746;11.780;2023-06-22T00:55:26;101423.63;;;19.14;94.17
57827;BME280;43656;57.746;11.780;2023-06-22T00:57:53;101425.59;;;19.31;93.49
57827;BME280;43656;57.746;11.780;2023-06-22T01:00:23;101425.59;;;19.31;93.72
57827;BME280;43656;57.746;11.780;2023-06-22T01:02:50;101429.38;;;19.30;93.94
57827;BME280;43656;57.746;11.780;2023-06-22T01:05:18;101424.66;;;19.25;94.50
57827;BME280;43656;57.746;11.780;2023-06-22T01:13:35;101428.22;;;19.25;95.13
57827;BME280;43656;57.746;11.780;2023-06-22T01:16:14;101406.78;;;19.17;95.11
57827;BME280;43656;57.746;11.780;2023-06-22T01:18:42;101407.34;;;19.19;95.40
57827;BME280;43656;57.746;11.780;2023-06-22T01:21:12;101430.34;;;19.23;96.17
57827;BME280;43656;57.746;11.780;2023-06-22T01:26:38;101441.38;;;19.29;95.99
57827;BME280;43656;57.746;11.780;2023-06-22T01:29:08;101445.41;;;19.26;96.20
57827;BME280;43656;57.746;11.780;2023-06-22T01:31:38;101443.50;;;19.27;96.33
57827;BME280;43656;57.746;11.780;2023-06-22T01:34:06;101444.50;;;19.20;96.95
57827;BME280;43656;57.746;11.780;2023-06-22T01:36:33;101449.44;;;19.23;96.94
57827;BME280;43656;57.746;11.780;2023-06-22T01:39:00;101443.16;;;19.23;96.85
57827;BME280;43656;57.746;11.780;2023-06-22T01:41:28;101442.94;;;19.24;97.39
57827;BME280;43656;57.746;11.780;2023-06-22T01:43:55;101447.78;;;19.22;97.59
57827;BME280;43656;57.746;11.780;2023-06-22T01:46:21;101443.97;;;19.23;97.81
57827;BME280;43656;57.746;11.780;2023-06-22T01:48:48;101454.66;;;19.25;98.11
57827;BME280;43656;57.746;11.780;2023-06-22T01:51:14;101452.16;;;19.23;98.38
57827;BME280;43656;57.746;11.780;2023-06-22T01:53:39;101440.34;;;19.18;98.11
57827;BME280;43656;57.746;11.780;2023-06-22T01:56:05;101435.09;;;19.16;98.22
57827;BME280;43656;57.746;11.780;2023-06-22T01:58:31;101453.50;;;19.21;98.85
57827;BME280;43656;57.746;11.780;2023-06-22T02:01:11;101454.41;;;19.27;98.71
57827;BME280;43656;57.746;11.780;2023-06-22T02:03:43;101459.03;;;19.26;98.77
57827;BME280;43656;57.746;11.780;2023-06-22T02:06:31;101456.66;;;19.30;98.58
57827;BME280;43656;57.746;11.780;2023-06-22T02:09:02;101454.41;;;19.27;98.91
57827;BME280;43656;57.746;11.780;2023-06-22T02:11:30;101440.44;;;19.23;98.93
57827;BME280;43656;57.746;11.780;2023-06-22T02:13:57;101445.41;;;19.26;99.23
57827;BME280;43656;57.746;11.780;2023-06-22T02:16:23;101461.56;;;19.28;99.57
57827;BME280;43656;57.746;11.780;2023-06-22T02:18:50;101453.94;;;19.30;99.25
57827;BME280;43656;57.746;11.780;2023-06-22T02:21:19;101456.56;;;19.24;99.70
57827;BME280;43656;57.746;11.780;2023-06-22T02:23:45;101459.72;;;19.33;99.59
57827;BME280;43656;57.746;11.780;2023-06-22T02:26:11;101466.72;;;19.41;98.69
57827;BME280;43656;57.746;11.780;2023-06-22T02:28:37;101471.13;;;19.42;98.94
57827;BME280;43656;57.746;11.780;2023-06-22T02:31:03;101468.53;;;19.35;99.29
57827;BME280;43656;57.746;11.780;2023-06-22T02:33:28;101471.50;;;19.34;99.56
57827;BME280;43656;57.746;11.780;2023-06-22T02:35:54;101443.97;;;19.23;98.98
57827;BME280;43656;57.746;11.780;2023-06-22T02:38:19;101470.50;;;19.40;98.85
57827;BME280;43656;57.746;11.780;2023-06-22T02:40:45;101473.50;;;19.38;99.09
57827;BME280;43656;57.746;11.780;2023-06-22T02:43:10;101474.91;;;19.41;98.48
57827;BME280;43656;57.746;11.780;2023-06-22T02:45:36;101471.00;;;19.37;98.88
57827;BME280;43656;57.746;11.780;2023-06-22T02:48:01;101472.53;;;19.44;97.80
57827;BME280;43656;57.746;11.780;2023-06-22T02:50:27;101473.44;;;19.50;97.69
57827;BME280;43656;57.746;11.780;2023-06-22T02:52:52;101487.59;;;19.47;98.15
57827;BME280;43656;57.746;11.780;2023-06-22T02:55:18;101476.19;;;19.50;97.94
57827;BME280;43656;57.746;11.780;2023-06-22T02:57:43;101489.69;;;19.57;97.76
57827;BME280;43656;57.746;11.780;2023-06-22T03:00:10;101486.13;;;19.56;97.66
57827;BME280;43656;57.746;11.780;2023-06-22T03:02:48;101490.63;;;19.62;97.15
57827;BME280;43656;57.746;11.780;2023-06-22T03:05:14;101487.06;;;19.62;97.15
57827;BME280;43656;57.746;11.780;2023-06-22T03:07:40;101489.47;;;19.58;97.41
57827;BME280;43656;57.746;11.780;2023-06-22T03:10:11;101494.34;;;19.68;97.18
57827;BME280;43656;57.746;11.780;2023-06-22T03:12:38;101493.84;;;19.71;96.57
57827;BME280;43656;57.746;11.780;2023-06-22T03:15:10;101482.09;;;19.59;97.00
57827;BME280;43656;57.746;11.780;2023-06-22T03:17:37;101483.66;;;19.55;96.90
57827;BME280;43656;57.746;11.780;2023-06-22T03:20:04;101496.47;;;19.54;97.29
57827;BME280;43656;57.746;11.780;2023-06-22T03:22:41;101504.09;;;19.64;96.47
57827;BME280;43656;57.746;11.780;2023-06-22T03:25:07;101507.16;;;19.67;96.27
57827;BME280;43656;57.746;11.780;2023-06-22T03:27:41;101505.72;;;19.65;96.13
57827;BME280;43656;57.746;11.780;2023-06-22T03:30:09;101500.03;;;19.55;97.22
57827;BME280;43656;57.746;11.780;2023-06-22T03:32:35;101508.81;;;19.68;96.40
57827;BME280;43656;57.746;11.780;2023-06-22T03:35:01;101516.25;;;19.73;96.12
57827;BME280;43656;57.746;11.780;2023-06-22T03:37:27;101511.41;;;19.75;95.97
57827;BME280;43656;57.746;11.780;2023-06-22T03:39:53;101521.00;;;19.78;95.65
57827;BME280;43656;57.746;11.780;2023-06-22T03:42:18;101522.91;;;19.77;95.62
57827;BME280;43656;57.746;11.780;2023-06-22T03:44:44;101519.59;;;19.75;95.63
57827;BME280;43656;57.746;11.780;2023-06-22T03:47:09;101517.47;;;19.65;95.38
57827;BME280;43656;57.746;11.780;2023-06-22T03:49:35;101533.09;;;19.82;94.68
57827;BME280;43656;57.746;11.780;2023-06-22T03:52:02;101538.56;;;19.82;94.38
57827;BME280;43656;57.746;11.780;2023-06-22T03:54:28;101536.91;;;19.81;94.62
57827;BME280;43656;57.746;11.780;2023-06-22T03:56:54;101526.19;;;19.91;94.18
57827;BME280;43656;57.746;11.780;2023-06-22T03:59:20;101536.63;;;19.94;94.00
57827;BME280;43656;57.746;11.780;2023-06-22T04:01:45;101535.53;;;19.95;94.24
57827;BME280;43656;57.746;11.780;2023-06-22T04:04:11;101536.97;;;19.98;94.09
57827;BME280;43656;57.746;11.780;2023-06-22T04:06:37;101531.00;;;20.01;93.96
57827;BME280;43656;57.746;11.780;2023-06-22T04:09:03;101536.81;;;20.04;94.01
57827;BME280;43656;57.746;11.780;2023-06-22T04:11:28;101534.16;;;20.09;93.76
57827;BME280;43656;57.746;11.780;2023-06-22T04:13:54;101536.41;;;20.12;93.55
57827;BME280;43656;57.746;11.780;2023-06-22T04:16:19;101539.13;;;20.12;93.58
57827;BME280;43656;57.746;11.780;2023-06-22T04:18:45;101537.00;;;20.14;93.24
57827;BME280;43656;57.746;11.780;2023-06-22T04:21:10;101538.41;;;20.17;92.72
57827;BME280;43656;57.746;11.780;2023-06-22T04:23:36;101537.16;;;20.08;92.83
57827;BME280;43656;57.746;11.780;2023-06-22T04:26:01;101533.63;;;20.24;92.20
57827;BME280;43656;57.746;11.780;2023-06-22T04:28:27;101538.91;;;20.59;90.48
57827;BME280;43656;57.746;11.780;2023-06-22T04:30:52;101540.16;;;20.52;90.92
57827;BME280;43656;57.746;11.780;2023-06-22T04:33:17;101533.88;;;20.39;91.74
57827;BME280;43656;57.746;11.780;2023-06-22T04:35:46;101515.06;;;20.26;92.07
57827;BME280;43656;57.746;11.780;2023-06-22T04:38:12;101532.50;;;20.37;92.00
57827;BME280;43656;57.746;11.780;2023-06-22T04:40:39;101536.44;;;20.29;92.61
57827;BME280;43656;57.746;11.780;2023-06-22T04:43:04;101535.13;;;20.32;92.67
57827;BME280;43656;57.746;11.780;2023-06-22T04:45:32;101542.81;;;20.18;93.72
57827;BME280;43656;57.746;11.780;2023-06-22T04:47:58;101545.78;;;20.16;93.85
57827;BME280;43656;57.746;11.780;2023-06-22T04:50:24;101547.28;;;20.24;93.41
57827;BME280;43656;57.746;11.780;2023-06-22T04:52:50;101545.66;;;20.23;93.47
57827;BME280;43656;57.746;11.780;2023-06-22T04:55:16;101546.66;;;20.34;93.39
57827;BME280;43656;57.746;11.780;2023-06-22T04:57:48;101538.84;;;20.42;93.29
57827;BME280;43656;57.746;11.780;2023-06-22T05:00:22;101535.97;;;20.49;92.68
57827;BME280;43656;57.746;11.780;2023-06-22T05:02:49;101536.22;;;20.48;92.75
57827;BME280;43656;57.746;11.780;2023-06-22T05:05:15;101533.72;;;20.46;92.45
57827;BME280;43656;57.746;11.780;2023-06-22T05:07:46;101549.88;;;20.48;92.95
57827;BME280;43656;57.746;11.780;2023-06-22T05:10:16;101541.44;;;20.49;92.70
57827;BME280;43656;57.746;11.780;2023-06-22T05:12:41;101543.88;;;20.62;92.14
57827;BME280;43656;57.746;11.780;2023-06-22T05:15:07;101510.53;;;20.49;92.43
57827;BME280;43656;57.746;11.780;2023-06-22T05:17:33;101542.50;;;20.60;92.49
57827;BME280;43656;57.746;11.780;2023-06-22T05:19:59;101537.03;;;20.60;92.55
57827;BME280;43656;57.746;11.780;2023-06-22T05:22:25;101542.06;;;20.68;91.89
57827;BME280;43656;57.746;11.780;2023-06-22T05:24:50;101545.72;;;20.74;92.13
57827;BME280;43656;57.746;11.780;2023-06-22T05:27:15;101546.03;;;20.77;91.72
57827;BME280;43656;57.746;11.780;2023-06-22T05:29:41;101541.66;;;20.76;91.87
57827;BME280;43656;57.746;11.780;2023-06-22T05:32:08;101529.03;;;20.58;92.90
57827;BME280;43656;57.746;11.780;2023-06-22T05:34:33;101530.28;;;20.68;92.67
57827;BME280;43656;57.746;11.780;2023-06-22T05:36:58;101539.09;;;20.70;92.43
57827;BME280;43656;57.746;11.780;2023-06-22T05:39:24;101545.13;;;20.88;91.67
57827;BME280;43656;57.746;11.780;2023-06-22T05:41:51;101540.56;;;20.94;91.60
57827;BME280;43656;57.746;11.780;2023-06-22T05:44:16;101546.81;;;21.11;90.38
57827;BME280;43656;57.746;11.780;2023-06-22T05:46:43;101537.28;;;21.14;90.61
57827;BME280;43656;57.746;11.780;2023-06-22T05:49:14;101540.81;;;21.31;90.11
57827;BME280;43656;57.746;11.780;2023-06-22T05:51:40;101538.75;;;21.22;90.00
57827;BME280;43656;57.746;11.780;2023-06-22T05:54:05;101536.66;;;21.29;89.53
57827;BME280;43656;57.746;11.780;2023-06-22T05:56:31;101551.53;;;21.33;89.78
57827;BME280;43656;57.746;11.780;2023-06-22T05:58:56;101549.59;;;21.50;89.13
57827;BME280;43656;57.746;11.780;2023-06-22T06:01:22;101540.25;;;21.46;89.03
57827;BME280;43656;57.746;11.780;2023-06-22T06:03:47;101548.59;;;21.56;88.59
57827;BME280;43656;57.746;11.780;2023-06-22T06:06:15;101546.66;;;21.57;88.82
57827;BME280;43656;57.746;11.780;2023-06-22T06:08:41;101540.03;;;21.75;87.36
57827;BME280;43656;57.746;11.780;2023-06-22T06:11:06;101547.88;;;21.66;87.67
57827;BME280;43656;57.746;11.780;2023-06-22T06:13:32;101546.66;;;21.79;87.52
57827;BME280;43656;57.746;11.780;2023-06-22T06:15:57;101550.13;;;22.18;85.72
57827;BME280;43656;57.746;11.780;2023-06-22T06:18:24;101548.16;;;22.41;84.92
57827;BME280;43656;57.746;11.780;2023-06-22T06:20:51;101559.22;;;22.51;83.68
57827;BME280;43656;57.746;11.780;2023-06-22T06:23:16;101556.03;;;22.32;84.05
57827;BME280;43656;57.746;11.780;2023-06-22T06:25:42;101563.16;;;22.33;84.12
57827;BME280;43656;57.746;11.780;2023-06-22T06:28:07;101553.94;;;22.44;83.11
57827;BME280;43656;57.746;11.780;2023-06-22T06:30:33;101561.19;;;22.56;82.87
57827;BME280;43656;57.746;11.780;2023-06-22T06:32:58;101564.34;;;22.74;81.87
57827;BME280;43656;57.746;11.780;2023-06-22T06:35:23;101566.41;;;22.89;81.17
57827;BME280;43656;57.746;11.780;2023-06-22T06:37:50;101554.69;;;22.67;81.28
57827;BME280;43656;57.746;11.780;2023-06-22T06:40:17;101573.88;;;22.67;81.34
57827;BME280;43656;57.746;11.780;2023-06-22T06:42:48;101576.28;;;22.90;80.63
57827;BME280;43656;57.746;11.780;2023-06-22T06:45:20;101573.69;;;23.06;80.02
57827;BME280;43656;57.746;11.780;2023-06-22T06:47:48;101564.16;;;23.18;79.26
57827;BME280;43656;57.746;11.780;2023-06-22T06:50:15;101557.53;;;23.14;78.83
57827;BME280;43656;57.746;11.780;2023-06-22T06:52:40;101564.63;;;23.05;78.89
57827;BME280;43656;57.746;11.780;2023-06-22T06:55:07;101574.38;;;23.28;78.29
57827;BME280;43656;57.746;11.780;2023-06-22T06:57:35;101578.88;;;23.50;77.61
57827;BME280;43656;57.746;11.780;2023-06-22T07:00:03;101583.88;;;23.58;77.11
57827;BME280;43656;57.746;11.780;2023-06-22T07:02:34;101578.63;;;23.51;77.16
57827;BME280;43656;57.746;11.780;2023-06-22T07:05:00;101576.94;;;23.50;76.97
57827;BME280;43656;57.746;11.780;2023-06-22T07:07:25;101564.97;;;23.19;77.11
57827;BME280;43656;57.746;11.780;2023-06-22T07:09:50;101580.81;;;23.07;77.55
57827;BME280;43656;57.746;11.780;2023-06-22T07:12:16;101579.66;;;22.97;78.24
57827;BME280;43656;57.746;11.780;2023-06-22T07:14:41;101559.91;;;23.01;78.04
57827;BME280;43656;57.746;11.780;2023-06-22T07:17:07;101568.13;;;22.95;78.22
57827;BME280;43656;57.746;11.780;2023-06-22T07:19:32;101575.53;;;22.95;78.57
57827;BME280;43656;57.746;11.780;2023-06-22T07:21:58;101583.81;;;22.73;79.45
57827;BME280;43656;57.746;11.780;2023-06-22T07:24:24;101586.06;;;23.08;78.53
57827;BME280;43656;57.746;11.780;2023-06-22T07:26:50;101577.06;;;23.18;78.02
57827;BME280;43656;57.746;11.780;2023-06-22T07:29:17;101577.59;;;23.20;77.70
57827;BME280;43656;57.746;11.780;2023-06-22T07:31:43;101579.41;;;23.41;77.15
57827;BME280;43656;57.746;11.780;2023-06-22T07:34:09;101579.50;;;23.62;76.35
57827;BME280;43656;57.746;11.780;2023-06-22T07:36:34;101581.97;;;23.63;76.07
57827;BME280;43656;57.746;11.780;2023-06-22T07:39:04;101579.03;;;23.75;75.28
57827;BME280;43656;57.746;11.780;2023-06-22T07:41:30;101582.31;;;23.77;75.06
57827;BME280;43656;57.746;11.780;2023-06-22T07:43:55;101590.28;;;23.74;75.28
57827;BME280;43656;57.746;11.780;2023-06-22T07:46:21;101584.78;;;23.74;74.75
57827;BME280;43656;57.746;11.780;2023-06-22T07:48:47;101575.56;;;23.48;75.36
57827;BME280;43656;57.746;11.780;2023-06-22T07:51:12;101584.72;;;23.63;74.58
57827;BME280;43656;57.746;11.780;2023-06-22T07:53:39;101589.00;;;23.39;74.74
57827;BME280;43656;57.746;11.780;2023-06-22T07:56:05;101582.56;;;23.18;75.38
57827;BME280;43656;57.746;11.780;2023-06-22T07:58:32;101583.72;;;23.32;75.19
57827;BME280;43656;57.746;11.780;2023-06-22T08:00:58;101583.69;;;23.27;75.81
57827;BME280;43656;57.746;11.780;2023-06-22T08:03:24;101583.81;;;23.48;75.39
57827;BME280;43656;57.746;11.780;2023-06-22T08:05:49;101580.03;;;23.64;74.91
57827;BME280;43656;57.746;11.780;2023-06-22T08:08:15;101583.88;;;23.58;74.76
57827;BME280;43656;57.746;11.780;2023-06-22T08:10:40;101591.66;;;23.71;74.45
57827;BME280;43656;57.746;11.780;2023-06-22T08:13:07;101584.13;;;23.51;73.90
57827;BME280;43656;57.746;11.780;2023-06-22T08:15:34;101592.19;;;23.68;73.80
57827;BME280;43656;57.746;11.780;2023-06-22T08:17:59;101594.47;;;23.86;73.02
57827;BME280;43656;57.746;11.780;2023-06-22T08:20:26;101598.88;;;23.87;72.38
57827;BME280;43656;57.746;11.780;2023-06-22T08:22:53;101596.13;;;23.92;72.28
57827;BME280;43656;57.746;11.780;2023-06-22T08:25:19;101586.09;;;23.66;71.02
57827;BME280;43656;57.746;11.780;2023-06-22T08:27:45;101604.03;;;23.74;71.05
57827;BME280;43656;57.746;11.780;2023-06-22T08:30:12;101604.38;;;23.87;71.11
57827;BME280;43656;57.746;11.780;2023-06-22T08:32:37;101596.72;;;24.00;70.54
57827;BME280;43656;57.746;11.780;2023-06-22T08:35:03;101607.97;;;23.98;70.17
57827;BME280;43656;57.746;11.780;2023-06-22T08:37:29;101605.44;;;23.81;70.47
57827;BME280;43656;57.746;11.780;2023-06-22T08:40:02;101602.81;;;23.59;71.28
57827;BME280;43656;57.746;11.780;2023-06-22T08:42:33;101606.34;;;23.44;71.83
57827;BME280;43656;57.746;11.780;2023-06-22T08:44:59;101613.06;;;23.69;71.52
57827;BME280;43656;57.746;11.780;2023-06-22T08:47:27;101617.03;;;23.94;70.69
57827;BME280;43656;57.746;11.780;2023-06-22T08:49:52;101611.59;;;23.56;70.86
57827;BME280;43656;57.746;11.780;2023-06-22T08:52:18;101620.22;;;23.70;70.80
57827;BME280;43656;57.746;11.780;2023-06-22T08:54:45;101624.13;;;23.79;70.55
57827;BME280;43656;57.746;11.780;2023-06-22T08:57:11;101618.13;;;23.92;70.59
57827;BME280;43656;57.746;11.780;2023-06-22T08:59:36;101626.66;;;23.91;70.73
57827;BME280;43656;57.746;11.780;2023-06-22T09:02:02;101613.13;;;23.79;70.40
57827;BME280;43656;57.746;11.780;2023-06-22T09:04:27;101604.00;;;23.68;70.33
57827;BME280;43656;57.746;11.780;2023-06-22T09:06:53;101626.34;;;23.82;70.90
57827;BME280;43656;57.746;11.780;2023-06-22T09:09:18;101605.22;;;23.45;71.53
57827;BME280;43656;57.746;11.780;2023-06-22T09:11:44;101617.69;;;23.63;71.97
57827;BME280;43656;57.746;11.780;2023-06-22T09:14:11;101625.22;;;23.83;71.64
57827;BME280;43656;57.746;11.780;2023-06-22T09:16:36;101615.66;;;23.91;71.11
57827;BME280;43656;57.746;11.780;2023-06-22T09:19:02;101614.28;;;23.94;71.31
57827;BME280;43656;57.746;11.780;2023-06-22T09:21:27;101621.94;;;23.86;71.56
57827;BME280;43656;57.746;11.780;2023-06-22T09:23:53;101620.84;;;23.82;71.61
57827;BME280;43656;57.746;11.780;2023-06-22T09:26:19;101603.88;;;24.01;71.85
57827;BME280;43656;57.746;11.780;2023-06-22T09:28:44;101613.81;;;23.59;72.80
57827;BME280;43656;57.746;11.780;2023-06-22T09:31:10;101614.19;;;23.73;73.04
57827;BME280;43656;57.746;11.780;2023-06-22T09:33:36;101611.44;;;23.73;72.49
57827;BME280;43656;57.746;11.780;2023-06-22T09:36:04;101590.75;;;23.60;72.66
57827;BME280;43656;57.746;11.780;2023-06-22T09:38:34;101601.97;;;23.54;73.00
57827;BME280;43656;57.746;11.780;2023-06-22T09:41:00;101611.81;;;23.44;73.60
57827;BME280;43656;57.746;11.780;2023-06-22T09:43:26;101602.91;;;23.22;74.10
57827;BME280;43656;57.746;11.780;2023-06-22T09:45:52;101607.44;;;23.06;74.27
57827;BME280;43656;57.746;11.780;2023-06-22T09:48:17;101600.69;;;23.19;74.17
57827;BME280;43656;57.746;11.780;2023-06-22T09:50:43;101605.47;;;23.39;73.98
57827;BME280;43656;57.746;11.780;2023-06-22T09:53:09;101611.22;;;23.37;74.25
57827;BME280;43656;57.746;11.780;2023-06-22T09:55:34;101607.97;;;23.45;74.07
57827;BME280;43656;57.746;11.780;2023-06-22T09:58:00;101566.91;;;23.24;73.91
57827;BME280;43656;57.746;11.780;2023-06-22T10:00:25;101605.88;;;23.63;73.88
57827;BME280;43656;57.746;11.780;2023-06-22T10:02:52;101593.25;;;23.67;72.76
57827;BME280;43656;57.746;11.780;2023-06-22T10:05:17;101620.13;;;24.07;71.92
57827;BME280;43656;57.746;11.780;2023-06-22T10:07:43;101617.69;;;24.26;71.39
57827;BME280;43656;57.746;11.780;2023-06-22T10:10:12;101623.53;;;24.45;70.35
57827;BME280;43656;57.746;11.780;2023-06-22T10:12:54;101623.00;;;24.48;70.62
57827;BME280;43656;57.746;11.780;2023-06-22T10:15:20;101617.50;;;24.48;70.42
57827;BME280;43656;57.746;11.780;2023-06-22T10:17:46;101593.31;;;24.60;69.47
57827;BME280;43656;57.746;11.780;2023-06-22T10:20:12;101616.13;;;24.61;69.68
57827;BME280;43656;57.746;11.780;2023-06-22T10:22:42;101621.56;;;24.35;70.15
57827;BME280;43656;57.746;11.780;2023-06-22T10:25:09;101611.84;;;24.02;71.64
57827;BME280;43656;57.746;11.780;2023-06-22T10:27:35;101616.06;;;24.35;71.76
57827;BME280;43656;57.746;11.780;2023-06-22T10:30:01;101610.34;;;24.47;71.53
57827;BME280;43656;57.746;11.780;2023-06-22T10:32:26;101616.41;;;24.70;71.03
57827;BME280;43656;57.746;11.780;2023-06-22T10:34:54;101625.19;;;24.46;72.66
57827;BME280;43656;57.746;11.780;2023-06-22T10:37:19;101618.88;;;24.61;71.71
57827;BME280;43656;57.746;11.780;2023-06-22T10:39:45;101604.59;;;24.74;71.56
57827;BME280;43656;57.746;11.780;2023-06-22T10:42:11;101620.00;;;24.96;70.51
57827;BME280;43656;57.746;11.780;2023-06-22T10:44:37;101627.72;;;24.83;70.33
57827;BME280;43656;57.746;11.780;2023-06-22T10:47:04;101623.84;;;24.64;71.24
57827;BME280;43656;57.746;11.780;2023-06-22T10:49:29;101631.25;;;24.58;72.21
57827;BME280;43656;57.746;11.780;2023-06-22T10:51:55;101633.16;;;24.53;72.68
57827;BME280;43656;57.746;11.780;2023-06-22T10:54:20;101631.16;;;24.18;74.82
57827;BME280;43656;57.746;11.780;2023-06-22T10:56:46;101623.72;;;24.23;74.70
57827;BME280;43656;57.746;11.780;2023-06-22T10:59:11;101620.72;;;24.25;74.41
57827;BME280;43656;57.746;11.780;2023-06-22T11:01:37;101622.38;;;24.21;74.57
57827;BME280;43656;57.746;11.780;2023-06-22T11:04:03;101636.19;;;24.41;74.04
57827;BME280;43656;57.746;11.780;2023-06-22T11:06:29;101627.38;;;24.49;72.97
57827;BME280;43656;57.746;11.780;2023-06-22T11:08:54;101607.31;;;24.59;71.13
57827;BME280;43656;57.746;11.780;2023-06-22T11:11:20;101622.75;;;24.80;71.14
57827;BME280;43656;57.746;11.780;2023-06-22T11:13:45;101623.31;;;24.77;70.47
57827;BME280;43656;57.746;11.780;2023-06-22T11:16:11;101626.31;;;24.71;70.58
57827;BME280;43656;57.746;11.780;2023-06-22T11:18:36;101622.19;;;24.73;70.70
57827;BME280;43656;57.746;11.780;2023-06-22T11:21:02;101623.59;;;24.91;70.32
57827;BME280;43656;57.746;11.780;2023-06-22T11:23:27;101623.84;;;24.84;70.64
57827;BME280;43656;57.746;11.780;2023-06-22T11:25:54;101617.50;;;24.79;71.02
57827;BME280;43656;57.746;11.780;2023-06-22T11:28:19;101623.81;;;24.44;72.04
57827;BME280;43656;57.746;11.780;2023-06-22T11:30:45;101611.22;;;23.90;72.72
57827;BME280;43656;57.746;11.780;2023-06-22T11:33:10;101618.06;;;23.77;73.09
57827;BME280;43656;57.746;11.780;2023-06-22T11:35:36;101621.38;;;23.79;73.22
57827;BME280;43656;57.746;11.780;2023-06-22T11:38:01;101614.94;;;24.21;72.47
57827;BME280;43656;57.746;11.780;2023-06-22T11:40:28;101599.00;;;24.38;71.70
57827;BME280;43656;57.746;11.780;2023-06-22T11:42:54;101609.00;;;24.70;70.35
57827;BME280;43656;57.746;11.780;2023-06-22T11:45:19;101619.47;;;24.83;70.65
57827;BME280;43656;57.746;11.780;2023-06-22T11:47:45;101610.63;;;24.87;70.23
57827;BME280;43656;57.746;11.780;2023-06-22T11:50:11;101606.75;;;25.03;69.87
57827;BME280;43656;57.746;11.780;2023-06-22T11:52:36;101609.78;;;25.32;68.24
57827;BME280;43656;57.746;11.780;2023-06-22T11:55:02;101611.72;;;25.16;68.19
57827;BME280;43656;57.746;11.780;2023-06-22T11:57:29;101608.97;;;24.96;69.15
57827;BME280;43656;57.746;11.780;2023-06-22T11:59:54;101616.44;;;25.00;69.83
57827;BME280;43656;57.746;11.780;2023-06-22T12:02:20;101619.72;;;24.82;70.56
57827;BME280;43656;57.746;11.780;2023-06-22T12:04:45;101624.94;;;24.68;70.04
57827;BME280;43656;57.746;11.780;2023-06-22T12:07:11;101623.81;;;24.44;70.43
57827;BME280;43656;57.746;11.780;2023-06-22T12:09:37;101624.38;;;24.41;69.96
57827;BME280;43656;57.746;11.780;2023-06-22T12:12:02;101602.28;;;24.25;70.09
57827;BME280;43656;57.746;11.780;2023-06-22T12:14:28;101629.31;;;24.44;70.71
57827;BME280;43656;57.746;11.780;2023-06-22T12:16:54;101623.84;;;24.64;69.66
57827;BME280;43656;57.746;11.780;2023-06-22T12:19:19;101617.16;;;24.39;70.13
57827;BME280;43656;57.746;11.780;2023-06-22T12:21:45;101616.66;;;24.43;70.60
57827;BME280;43656;57.746;11.780;2023-06-22T12:24:11;101623.81;;;24.44;71.64
57827;BME280;43656;57.746;11.780;2023-06-22T12:26:36;101617.97;;;24.25;74.11
57827;BME280;43656;57.746;11.780;2023-06-22T12:29:02;101615.44;;;24.13;75.39
57827;BME280;43656;57.746;11.780;2023-06-22T12:31:27;101611.56;;;24.04;75.55
57827;BME280;43656;57.746;11.780;2023-06-22T12:33:53;101606.91;;;24.04;75.25
57827;BME280;43656;57.746;11.780;2023-06-22T12:36:18;101574.00;;;23.67;76.46
57827;BME280;43656;57.746;11.780;2023-06-22T12:38:44;101589.25;;;23.85;76.39
57827;BME280;43656;57.746;11.780;2023-06-22T12:41:09;101598.81;;;23.72;78.70
57827;BME280;43656;57.746;11.780;2023-06-22T12:43:34;101599.97;;;23.86;78.32
57827;BME280;43656;57.746;11.780;2023-06-22T12:46:00;101596.97;;;23.93;77.50